Aviation Digital Data Service (ADDS)

Output produced by METARs form (1849 UTC 28 March 2015)
found at http://aviationweather.gov/adds/metars/
 
KMPV 281720Z 2818/2918 34010G18KT P6SM SCT035 BKN060 
     TEMPO 2818/2820 BKN025 OVC060 
     FM290400 31004KT P6SM SCT035